Flight Track Log - Related Links

Times and Time Zones

All times are in EDT time to prevent confusion due to time zone crossing. See the N612CT flight status page for this flight to view local times or setup timezone preferences in your user account.

Time Position Orientation Groundspeed Altitude Reporting Facility
EDT Latitude Longitude Course Direction KTS MPH feet Rate Location/Type
Fri 05:15:00 PM 26.4258 -81.8806 341° North  Level FlightAware Approximate
Fri 05:16:00 PM 26.4714 -81.8981 341° North  Level FlightAware Approximate
Fri 05:17:00 PM 26.5170 -81.9157 341° North  Level FlightAware Approximate
Fri 05:18:00 PM 26.5625 -81.9333 341° North  Level FlightAware Approximate
Fri 05:19:00 PM 26.6081 -81.9509 341° North  Level FlightAware Approximate
Fri 05:20:00 PM 26.6536 -81.9685 341° North  Level FlightAware Approximate
Fri 05:21:00 PM 26.6931 -81.9994 318° Northwest  Level Estimated
Fri 05:22:00 PM 26.7372 -82.0210 336° Northwest  Level FlightAware Approximate
Fri 05:23:00 PM 26.7764 -82.0525 313° West  Level Estimated
Fri 05:24:00 PM 26.8184 -82.0789 331° Northwest  Level FlightAware Approximate
Fri 05:25:00 PM 26.8605 -82.1053 331° Northwest  Level FlightAware Approximate
Fri 05:26:00 PM 26.8991 -82.1376 318° Northwest  Level Estimated
Fri 05:27:00 PM 26.9378 -82.1699 318° Northwest  Level Estimated
Fri 05:28:00 PM 26.9783 -82.1991 327° Northwest  Level FlightAware Approximate
Fri 05:29:00 PM 27.0168 -82.2317 318° Northwest  Level Estimated
Fri 05:29:09 PM 26.9000 -82.1500 310° West 163 188 8,000  Level Tampa TRACON
Fri 05:30:00 PM 27.0552 -82.2643 318° Northwest  Level Estimated
Fri 05:30:27 PM 26.9333 -82.1833 318° Northwest 163 188 8,000  Level Tampa TRACON
Fri 05:31:00 PM 27.0947 -82.2953 325° Northwest  Level FlightAware Approximate
Fri 05:31:27 PM 26.9833 -82.2167 329° Northwest 175 201 7,300  Level Tampa TRACON
Fri 05:32:00 PM 27.1330 -82.3282 310° West  Level Estimated
Fri 05:33:00 PM 27.1709 -82.3617 322° Northwest  Level FlightAware Approximate
Fri 05:33:27 PM 27.0500 -82.3000 312° West 184 212 6,000  Level Tampa TRACON
Fri 05:34:00 PM 27.2092 -82.3945 310° West  Level Estimated
Fri 05:34:27 PM 27.0833 -82.3500 307° West 175 201 5,700  Level Tampa TRACON
Fri 05:35:27 PM 27.1000 -82.4000 291° West 183 211 5,200 -500 Descending Tampa TRACON
Fri 05:36:27 PM 27.1333 -82.4333 318° Northwest 182 209 4,700 -500 Descending Tampa TRACON
Fri 05:37:27 PM 27.1500 -82.4833 291° West 183 211 4,200 -350 Descending Tampa TRACON
Fri 05:38:27 PM 27.1833 -82.5333 307° West 176 203 4,000 -100 Descending Tampa TRACON
Fri 05:39:27 PM 27.2167 -82.5667 318° Northwest 169 194 4,000 -286 Level Tampa TRACON
Fri 05:40:33 PM 27.2500 -82.6167 307° West 181 208 3,400 -524 Descending Tampa TRACON
Fri 05:41:33 PM 27.2833 -82.6500 318° Northwest 179 206 2,900 -417 Descending Tampa TRACON
Fri 05:42:28 PM 27.3333 -82.6667 344° North 165 190 2,600 -421 Descending Tampa TRACON
Fri 05:43:27 PM 27.3833 -82.6667 360° North 154 177 2,100 -555 Descending Tampa TRACON
Fri 05:44:27 PM 27.4167 -82.6500 24° Northeast 144 166 1,500 -347 Descending Tampa TRACON
Fri 05:45:28 PM 27.4333 -82.6167 61° Northeast 107 123 1,400 -298 Descending Tampa TRACON
Fri 05:46:28 PM 27.4333 -82.6000 90° East 84 97 900 -500 Descending Tampa TRACON
Fri 05:47:28 PM 27.4167 -82.5833 138° Southeast 86 99 400 -500 Descending Tampa TRACON
Fri 05:49:00 PM 27.3954 -82.5544 130° Southeast  Level Estimated
Fri 05:56:00 PM 27.3954 -82.5544 13° North  Level Estimated

Login

Don't have an account? Register now (free) for customized features, flight alerts, and more!